Accueil
METAR-TAF:

METAR-TAF

Aéroports :

Burlington / Mount Vernon, Washington, États-Unis

latitude: 48-28-15N, longitude: 122-25-15W, altitude: 44 m

Observation

Le bulletin a été fait il y a 29 minutes, à 19:55 UTC
Vent calme
Température 10°C
Humidité 71%
Pression 1007 hPa
Visibilité: 16.1 km
Ciel couvert à une hauteur de 5000 ft

METAR: KBVS 211955Z AUTO 00000KT 10SM OVC050 10/05 A2974 RMK A01

Heure: 12:24 (20:24 UTC)


TAF: absent

Observations et prévisions météorologiques de plus de 4000 aéroports (messages METAR et TAF).

Les stations disponibles sont représentées par des disques jaunes et rouges sur la carte.

Passer la souris dessus pour voir le nom de la station.

Cliquer dessus pour voir les observations et prévisions météorologiques.

Pour changer de carte: cliquez sur les boutons verts avec une croix noire pour zoomer, sur le bouton vert avec un tiret pour effectuer un zoom arrière, ou sur les flèches vertes pour les cartes adjacentes.


METAR-TAF: